sensor_id;sensor_type;location;lat;lon;timestamp;P1;durP1;ratioP1;P2;durP2;ratioP2
41966;SDS011;27656;53.068;8.818;2023-07-13T00:02:11;8.50;;;4.43;;
41966;SDS011;27656;53.068;8.818;2023-07-13T00:04:41;7.37;;;4.10;;
41966;SDS011;27656;53.068;8.818;2023-07-13T00:07:07;7.40;;;5.03;;
41966;SDS011;27656;53.068;8.818;2023-07-13T00:09:36;9.00;;;5.07;;
41966;SDS011;27656;53.068;8.818;2023-07-13T00:12:02;8.53;;;4.43;;
41966;SDS011;27656;53.068;8.818;2023-07-13T00:14:29;6.83;;;4.97;;
41966;SDS011;27656;53.068;8.818;2023-07-13T00:16:56;10.43;;;4.70;;
41966;SDS011;27656;53.068;8.818;2023-07-13T00:19:23;7.97;;;4.93;;
41966;SDS011;27656;53.068;8.818;2023-07-13T00:21:50;8.70;;;4.80;;
41966;SDS011;27656;53.068;8.818;2023-07-13T00:24:18;6.90;;;4.53;;
41966;SDS011;27656;53.068;8.818;2023-07-13T00:26:50;7.30;;;4.50;;
41966;SDS011;27656;53.068;8.818;2023-07-13T00:29:17;10.43;;;4.97;;
41966;SDS011;27656;53.068;8.818;2023-07-13T00:31:44;9.13;;;4.67;;
41966;SDS011;27656;53.068;8.818;2023-07-13T00:34:15;7.30;;;4.73;;
41966;SDS011;27656;53.068;8.818;2023-07-13T00:36:41;7.90;;;5.53;;
41966;SDS011;27656;53.068;8.818;2023-07-13T00:39:09;6.43;;;5.10;;
41966;SDS011;27656;53.068;8.818;2023-07-13T00:41:43;11.40;;;5.17;;
41966;SDS011;27656;53.068;8.818;2023-07-13T00:44:14;10.80;;;5.40;;
41966;SDS011;27656;53.068;8.818;2023-07-13T00:46:46;9.90;;;4.60;;
41966;SDS011;27656;53.068;8.818;2023-07-13T00:49:15;9.37;;;5.00;;
41966;SDS011;27656;53.068;8.818;2023-07-13T00:52:00;8.87;;;4.90;;
41966;SDS011;27656;53.068;8.818;2023-07-13T00:54:30;10.00;;;5.17;;
41966;SDS011;27656;53.068;8.818;2023-07-13T00:57:00;8.33;;;5.10;;
41966;SDS011;27656;53.068;8.818;2023-07-13T00:59:28;7.47;;;5.17;;
41966;SDS011;27656;53.068;8.818;2023-07-13T01:01:56;10.00;;;5.23;;
41966;SDS011;27656;53.068;8.818;2023-07-13T01:04:25;11.17;;;5.60;;
41966;SDS011;27656;53.068;8.818;2023-07-13T01:06:52;12.53;;;6.10;;
41966;SDS011;27656;53.068;8.818;2023-07-13T01:09:19;8.23;;;5.00;;
41966;SDS011;27656;53.068;8.818;2023-07-13T01:11:46;10.67;;;5.33;;
41966;SDS011;27656;53.068;8.818;2023-07-13T01:14:13;11.20;;;5.60;;
41966;SDS011;27656;53.068;8.818;2023-07-13T01:16:41;9.87;;;5.77;;
41966;SDS011;27656;53.068;8.818;2023-07-13T01:22:04;10.80;;;6.30;;
41966;SDS011;27656;53.068;8.818;2023-07-13T01:24:42;9.90;;;5.57;;
41966;SDS011;27656;53.068;8.818;2023-07-13T01:27:12;11.87;;;6.43;;
41966;SDS011;27656;53.068;8.818;2023-07-13T01:29:43;9.93;;;6.00;;
41966;SDS011;27656;53.068;8.818;2023-07-13T01:32:15;15.27;;;6.83;;
41966;SDS011;27656;53.068;8.818;2023-07-13T01:34:43;8.67;;;6.77;;
41966;SDS011;27656;53.068;8.818;2023-07-13T01:37:10;10.43;;;6.30;;
41966;SDS011;27656;53.068;8.818;2023-07-13T01:39:38;7.83;;;6.67;;
41966;SDS011;27656;53.068;8.818;2023-07-13T01:42:04;10.40;;;6.77;;
41966;SDS011;27656;53.068;8.818;2023-07-13T01:44:32;9.50;;;6.50;;
41966;SDS011;27656;53.068;8.818;2023-07-13T01:47:00;16.87;;;6.90;;
41966;SDS011;27656;53.068;8.818;2023-07-13T01:49:40;13.43;;;6.97;;
41966;SDS011;27656;53.068;8.818;2023-07-13T01:52:07;9.50;;;7.10;;
41966;SDS011;27656;53.068;8.818;2023-07-13T01:54:34;9.57;;;7.37;;
41966;SDS011;27656;53.068;8.818;2023-07-13T01:57:00;9.47;;;7.03;;
41966;SDS011;27656;53.068;8.818;2023-07-13T01:59:27;12.20;;;7.53;;
41966;SDS011;27656;53.068;8.818;2023-07-13T02:01:57;14.93;;;8.10;;
41966;SDS011;27656;53.068;8.818;2023-07-13T02:04:23;11.87;;;7.27;;
41966;SDS011;27656;53.068;8.818;2023-07-13T02:06:50;12.97;;;7.03;;
41966;SDS011;27656;53.068;8.818;2023-07-13T02:09:16;15.17;;;6.93;;
41966;SDS011;27656;53.068;8.818;2023-07-13T02:11:45;12.93;;;6.83;;
41966;SDS011;27656;53.068;8.818;2023-07-13T02:14:11;10.93;;;7.13;;
41966;SDS011;27656;53.068;8.818;2023-07-13T02:16:38;14.10;;;7.00;;
41966;SDS011;27656;53.068;8.818;2023-07-13T02:19:05;14.67;;;7.10;;
41966;SDS011;27656;53.068;8.818;2023-07-13T02:21:32;13.53;;;6.80;;
41966;SDS011;27656;53.068;8.818;2023-07-13T02:23:59;14.13;;;6.70;;
41966;SDS011;27656;53.068;8.818;2023-07-13T02:26:26;13.70;;;6.70;;
41966;SDS011;27656;53.068;8.818;2023-07-13T02:28:53;12.27;;;6.97;;
41966;SDS011;27656;53.068;8.818;2023-07-13T02:31:20;15.30;;;6.83;;
41966;SDS011;27656;53.068;8.818;2023-07-13T02:33:50;12.33;;;7.83;;
41966;SDS011;27656;53.068;8.818;2023-07-13T02:36:17;13.63;;;6.53;;
41966;SDS011;27656;53.068;8.818;2023-07-13T02:38:44;13.20;;;7.10;;
41966;SDS011;27656;53.068;8.818;2023-07-13T02:41:15;9.97;;;6.37;;
41966;SDS011;27656;53.068;8.818;2023-07-13T02:43:41;8.63;;;6.93;;
41966;SDS011;27656;53.068;8.818;2023-07-13T02:46:08;10.00;;;6.70;;
41966;SDS011;27656;53.068;8.818;2023-07-13T02:48:36;9.90;;;6.73;;
41966;SDS011;27656;53.068;8.818;2023-07-13T02:51:07;7.60;;;6.83;;
41966;SDS011;27656;53.068;8.818;2023-07-13T02:53:34;13.03;;;6.37;;
41966;SDS011;27656;53.068;8.818;2023-07-13T02:56:03;11.00;;;6.57;;
41966;SDS011;27656;53.068;8.818;2023-07-13T02:58:31;8.33;;;6.53;;
41966;SDS011;27656;53.068;8.818;2023-07-13T03:00:57;19.03;;;6.70;;
41966;SDS011;27656;53.068;8.818;2023-07-13T03:03:26;14.37;;;6.83;;
41966;SDS011;27656;53.068;8.818;2023-07-13T03:05:57;13.70;;;6.30;;
41966;SDS011;27656;53.068;8.818;2023-07-13T03:08:26;14.37;;;6.80;;
41966;SDS011;27656;53.068;8.818;2023-07-13T03:10:59;12.23;;;5.80;;
41966;SDS011;27656;53.068;8.818;2023-07-13T03:13:31;10.77;;;5.97;;
41966;SDS011;27656;53.068;8.818;2023-07-13T03:15:58;13.37;;;5.40;;
41966;SDS011;27656;53.068;8.818;2023-07-13T03:18:26;16.23;;;5.73;;
41966;SDS011;27656;53.068;8.818;2023-07-13T03:20:55;12.73;;;5.33;;
41966;SDS011;27656;53.068;8.818;2023-07-13T03:23:22;12.63;;;5.63;;
41966;SDS011;27656;53.068;8.818;2023-07-13T03:25:50;12.93;;;5.13;;
41966;SDS011;27656;53.068;8.818;2023-07-13T03:28:26;12.03;;;6.03;;
41966;SDS011;27656;53.068;8.818;2023-07-13T03:31:03;11.53;;;4.40;;
41966;SDS011;27656;53.068;8.818;2023-07-13T03:33:33;12.30;;;4.70;;
41966;SDS011;27656;53.068;8.818;2023-07-13T03:36:02;14.43;;;5.00;;
41966;SDS011;27656;53.068;8.818;2023-07-13T03:38:30;10.87;;;4.37;;
41966;SDS011;27656;53.068;8.818;2023-07-13T03:40:57;16.87;;;4.43;;
41966;SDS011;27656;53.068;8.818;2023-07-13T03:43:25;14.07;;;4.20;;
41966;SDS011;27656;53.068;8.818;2023-07-13T03:45:51;11.77;;;3.80;;
41966;SDS011;27656;53.068;8.818;2023-07-13T03:48:18;18.30;;;3.87;;
41966;SDS011;27656;53.068;8.818;2023-07-13T03:50:45;9.40;;;3.00;;
41966;SDS011;27656;53.068;8.818;2023-07-13T03:53:16;12.77;;;3.80;;
41966;SDS011;27656;53.068;8.818;2023-07-13T03:55:43;15.63;;;3.40;;
41966;SDS011;27656;53.068;8.818;2023-07-13T04:00:57;9.70;;;3.10;;
41966;SDS011;27656;53.068;8.818;2023-07-13T04:03:26;10.23;;;3.10;;
41966;SDS011;27656;53.068;8.818;2023-07-13T04:05:55;10.77;;;3.27;;
41966;SDS011;27656;53.068;8.818;2023-07-13T04:08:26;12.60;;;3.30;;
41966;SDS011;27656;53.068;8.818;2023-07-13T04:10:54;11.70;;;3.57;;
41966;SDS011;27656;53.068;8.818;2023-07-13T04:13:21;9.10;;;3.07;;
41966;SDS011;27656;53.068;8.818;2023-07-13T04:15:48;19.33;;;3.17;;
41966;SDS011;27656;53.068;8.818;2023-07-13T04:18:15;11.60;;;3.30;;
41966;SDS011;27656;53.068;8.818;2023-07-13T04:20:42;6.77;;;2.77;;
41966;SDS011;27656;53.068;8.818;2023-07-13T04:23:08;13.03;;;3.10;;
41966;SDS011;27656;53.068;8.818;2023-07-13T04:25:35;10.53;;;3.00;;
41966;SDS011;27656;53.068;8.818;2023-07-13T04:28:03;11.57;;;2.83;;
41966;SDS011;27656;53.068;8.818;2023-07-13T04:30:31;10.00;;;2.60;;
41966;SDS011;27656;53.068;8.818;2023-07-13T04:32:58;7.70;;;2.57;;
41966;SDS011;27656;53.068;8.818;2023-07-13T04:35:24;10.23;;;2.73;;
41966;SDS011;27656;53.068;8.818;2023-07-13T04:37:51;11.27;;;2.70;;
41966;SDS011;27656;53.068;8.818;2023-07-13T04:40:18;11.30;;;2.80;;
41966;SDS011;27656;53.068;8.818;2023-07-13T04:42:46;12.87;;;2.70;;
41966;SDS011;27656;53.068;8.818;2023-07-13T04:45:15;18.00;;;3.00;;
41966;SDS011;27656;53.068;8.818;2023-07-13T04:47:44;7.87;;;2.57;;
41966;SDS011;27656;53.068;8.818;2023-07-13T04:50:12;11.67;;;2.83;;
41966;SDS011;27656;53.068;8.818;2023-07-13T04:52:46;8.90;;;3.10;;
41966;SDS011;27656;53.068;8.818;2023-07-13T04:55:14;9.90;;;2.93;;
41966;SDS011;27656;53.068;8.818;2023-07-13T04:57:42;11.00;;;3.50;;
41966;SDS011;27656;53.068;8.818;2023-07-13T05:00:09;8.97;;;3.10;;
41966;SDS011;27656;53.068;8.818;2023-07-13T05:02:37;10.70;;;2.87;;
41966;SDS011;27656;53.068;8.818;2023-07-13T05:05:05;8.93;;;2.97;;
41966;SDS011;27656;53.068;8.818;2023-07-13T05:07:40;11.43;;;2.80;;
41966;SDS011;27656;53.068;8.818;2023-07-13T05:10:06;13.33;;;3.00;;
41966;SDS011;27656;53.068;8.818;2023-07-13T05:12:34;12.17;;;2.97;;
41966;SDS011;27656;53.068;8.818;2023-07-13T05:15:01;9.73;;;2.63;;
41966;SDS011;27656;53.068;8.818;2023-07-13T05:17:29;7.50;;;2.80;;
41966;SDS011;27656;53.068;8.818;2023-07-13T05:20:00;11.10;;;2.70;;
41966;SDS011;27656;53.068;8.818;2023-07-13T05:22:26;12.97;;;3.10;;
41966;SDS011;27656;53.068;8.818;2023-07-13T05:24:54;16.40;;;3.30;;
41966;SDS011;27656;53.068;8.818;2023-07-13T05:27:21;10.23;;;3.33;;
41966;SDS011;27656;53.068;8.818;2023-07-13T05:29:47;14.37;;;3.13;;
41966;SDS011;27656;53.068;8.818;2023-07-13T05:32:18;11.27;;;2.90;;
41966;SDS011;27656;53.068;8.818;2023-07-13T05:34:45;9.37;;;2.93;;
41966;SDS011;27656;53.068;8.818;2023-07-13T05:37:12;7.00;;;2.50;;
41966;SDS011;27656;53.068;8.818;2023-07-13T05:39:40;12.00;;;2.90;;
41966;SDS011;27656;53.068;8.818;2023-07-13T05:42:20;11.17;;;2.60;;
41966;SDS011;27656;53.068;8.818;2023-07-13T05:44:49;16.60;;;3.60;;
41966;SDS011;27656;53.068;8.818;2023-07-13T05:47:15;11.50;;;3.27;;
41966;SDS011;27656;53.068;8.818;2023-07-13T05:49:49;14.80;;;3.03;;
41966;SDS011;27656;53.068;8.818;2023-07-13T05:52:17;8.73;;;3.00;;
41966;SDS011;27656;53.068;8.818;2023-07-13T05:54:45;13.00;;;3.10;;
41966;SDS011;27656;53.068;8.818;2023-07-13T05:57:12;10.53;;;3.33;;
41966;SDS011;27656;53.068;8.818;2023-07-13T05:59:38;13.13;;;2.90;;
41966;SDS011;27656;53.068;8.818;2023-07-13T06:02:09;11.10;;;3.10;;
41966;SDS011;27656;53.068;8.818;2023-07-13T06:04:39;14.20;;;3.63;;
41966;SDS011;27656;53.068;8.818;2023-07-13T06:07:06;11.80;;;2.97;;
41966;SDS011;27656;53.068;8.818;2023-07-13T06:09:33;12.00;;;3.07;;
41966;SDS011;27656;53.068;8.818;2023-07-13T06:12:01;12.37;;;2.87;;
41966;SDS011;27656;53.068;8.818;2023-07-13T06:14:29;12.57;;;2.77;;
41966;SDS011;27656;53.068;8.818;2023-07-13T06:16:56;13.90;;;3.27;;
41966;SDS011;27656;53.068;8.818;2023-07-13T06:19:23;10.57;;;2.77;;
41966;SDS011;27656;53.068;8.818;2023-07-13T06:21:50;11.87;;;2.77;;
41966;SDS011;27656;53.068;8.818;2023-07-13T06:24:17;11.57;;;2.73;;
41966;SDS011;27656;53.068;8.818;2023-07-13T06:26:44;13.07;;;3.23;;
41966;SDS011;27656;53.068;8.818;2023-07-13T06:29:11;10.07;;;2.57;;
41966;SDS011;27656;53.068;8.818;2023-07-13T06:31:43;12.20;;;2.77;;
41966;SDS011;27656;53.068;8.818;2023-07-13T06:34:11;9.93;;;3.30;;
41966;SDS011;27656;53.068;8.818;2023-07-13T06:36:41;13.70;;;3.60;;
41966;SDS011;27656;53.068;8.818;2023-07-13T06:39:08;12.80;;;3.13;;
41966;SDS011;27656;53.068;8.818;2023-07-13T06:41:35;15.50;;;3.20;;
41966;SDS011;27656;53.068;8.818;2023-07-13T06:44:02;11.87;;;3.47;;
41966;SDS011;27656;53.068;8.818;2023-07-13T06:46:29;10.93;;;3.20;;
41966;SDS011;27656;53.068;8.818;2023-07-13T06:48:56;10.60;;;2.90;;
41966;SDS011;27656;53.068;8.818;2023-07-13T06:51:22;12.87;;;2.80;;
41966;SDS011;27656;53.068;8.818;2023-07-13T06:53:50;10.30;;;2.90;;
41966;SDS011;27656;53.068;8.818;2023-07-13T06:56:18;12.47;;;3.20;;
41966;SDS011;27656;53.068;8.818;2023-07-13T06:58:45;7.43;;;2.67;;
41966;SDS011;27656;53.068;8.818;2023-07-13T07:01:16;9.50;;;3.37;;
41966;SDS011;27656;53.068;8.818;2023-07-13T07:03:43;10.87;;;3.23;;
41966;SDS011;27656;53.068;8.818;2023-07-13T07:06:18;12.47;;;2.90;;
41966;SDS011;27656;53.068;8.818;2023-07-13T07:08:46;12.37;;;3.03;;
41966;SDS011;27656;53.068;8.818;2023-07-13T07:11:15;9.17;;;3.17;;
41966;SDS011;27656;53.068;8.818;2023-07-13T07:13:43;12.10;;;2.80;;
41966;SDS011;27656;53.068;8.818;2023-07-13T07:16:13;10.37;;;2.73;;
41966;SDS011;27656;53.068;8.818;2023-07-13T07:18:41;8.83;;;2.60;;
41966;SDS011;27656;53.068;8.818;2023-07-13T07:21:09;13.13;;;3.33;;
41966;SDS011;27656;53.068;8.818;2023-07-13T07:23:39;12.40;;;3.20;;
41966;SDS011;27656;53.068;8.818;2023-07-13T07:26:06;10.60;;;2.63;;
41966;SDS011;27656;53.068;8.818;2023-07-13T07:28:36;11.90;;;2.47;;
41966;SDS011;27656;53.068;8.818;2023-07-13T07:31:05;8.07;;;2.40;;
41966;SDS011;27656;53.068;8.818;2023-07-13T07:33:38;12.83;;;3.17;;
41966;SDS011;27656;53.068;8.818;2023-07-13T07:36:05;7.70;;;2.87;;
41966;SDS011;27656;53.068;8.818;2023-07-13T07:38:37;8.83;;;2.87;;
41966;SDS011;27656;53.068;8.818;2023-07-13T07:41:04;8.67;;;2.70;;
41966;SDS011;27656;53.068;8.818;2023-07-13T07:43:40;9.50;;;2.83;;
41966;SDS011;27656;53.068;8.818;2023-07-13T07:46:07;10.20;;;2.60;;
41966;SDS011;27656;53.068;8.818;2023-07-13T07:48:36;12.30;;;3.13;;
41966;SDS011;27656;53.068;8.818;2023-07-13T07:51:02;9.67;;;2.87;;
41966;SDS011;27656;53.068;8.818;2023-07-13T07:53:31;9.97;;;2.90;;
41966;SDS011;27656;53.068;8.818;2023-07-13T07:56:00;11.27;;;2.70;;
41966;SDS011;27656;53.068;8.818;2023-07-13T07:58:47;10.80;;;3.17;;
41966;SDS011;27656;53.068;8.818;2023-07-13T08:01:17;7.70;;;2.90;;
41966;SDS011;27656;53.068;8.818;2023-07-13T08:03:48;11.73;;;3.00;;
41966;SDS011;27656;53.068;8.818;2023-07-13T08:06:18;10.43;;;3.10;;
41966;SDS011;27656;53.068;8.818;2023-07-13T08:08:49;12.67;;;2.70;;
41966;SDS011;27656;53.068;8.818;2023-07-13T08:11:16;8.70;;;2.30;;
41966;SDS011;27656;53.068;8.818;2023-07-13T08:13:50;8.73;;;2.47;;
41966;SDS011;27656;53.068;8.818;2023-07-13T08:16:21;7.20;;;2.93;;
41966;SDS011;27656;53.068;8.818;2023-07-13T08:18:51;6.90;;;2.47;;
41966;SDS011;27656;53.068;8.818;2023-07-13T08:21:19;14.00;;;3.00;;
41966;SDS011;27656;53.068;8.818;2023-07-13T08:23:46;8.93;;;2.33;;
41966;SDS011;27656;53.068;8.818;2023-07-13T08:26:13;9.53;;;2.43;;
41966;SDS011;27656;53.068;8.818;2023-07-13T08:28:40;10.53;;;2.87;;
41966;SDS011;27656;53.068;8.818;2023-07-13T08:31:09;12.80;;;2.90;;
41966;SDS011;27656;53.068;8.818;2023-07-13T08:33:37;9.57;;;2.63;;
41966;SDS011;27656;53.068;8.818;2023-07-13T08:36:07;8.80;;;2.70;;
41966;SDS011;27656;53.068;8.818;2023-07-13T08:38:47;6.73;;;2.80;;
41966;SDS011;27656;53.068;8.818;2023-07-13T08:41:15;10.77;;;2.60;;
41966;SDS011;27656;53.068;8.818;2023-07-13T08:43:46;7.50;;;2.37;;
41966;SDS011;27656;53.068;8.818;2023-07-13T08:46:23;7.33;;;2.60;;
41966;SDS011;27656;53.068;8.818;2023-07-13T08:48:59;9.83;;;3.27;;
41966;SDS011;27656;53.068;8.818;2023-07-13T08:51:39;8.53;;;2.53;;
41966;SDS011;27656;53.068;8.818;2023-07-13T08:54:12;8.40;;;2.50;;
41966;SDS011;27656;53.068;8.818;2023-07-13T08:56:44;9.67;;;2.53;;
41966;SDS011;27656;53.068;8.818;2023-07-13T08:59:16;7.47;;;2.60;;
41966;SDS011;27656;53.068;8.818;2023-07-13T09:02:06;10.53;;;2.90;;
41966;SDS011;27656;53.068;8.818;2023-07-13T09:04:48;7.18;;;2.38;;
41966;SDS011;27656;53.068;8.818;2023-07-13T09:10:20;8.10;;;2.22;;
41966;SDS011;27656;53.068;8.818;2023-07-13T09:15:50;6.88;;;2.40;;
41966;SDS011;27656;53.068;8.818;2023-07-13T09:21:07;4.60;;;2.15;;
41966;SDS011;27656;53.068;8.818;2023-07-13T09:23:38;8.35;;;2.30;;
41966;SDS011;27656;53.068;8.818;2023-07-13T09:26:13;9.88;;;2.75;;
41966;SDS011;27656;53.068;8.818;2023-07-13T09:28:43;8.90;;;2.70;;
41966;SDS011;27656;53.068;8.818;2023-07-13T09:31:32;4.68;;;2.00;;
41966;SDS011;27656;53.068;8.818;2023-07-13T09:34:04;6.97;;;2.60;;
41966;SDS011;27656;53.068;8.818;2023-07-13T09:36:36;6.60;;;2.40;;
41966;SDS011;27656;53.068;8.818;2023-07-13T09:39:33;4.65;;;1.95;;
41966;SDS011;27656;53.068;8.818;2023-07-13T09:42:12;5.47;;;2.10;;
41966;SDS011;27656;53.068;8.818;2023-07-13T09:47:26;9.27;;;2.50;;
41966;SDS011;27656;53.068;8.818;2023-07-13T09:49:55;8.85;;;2.10;;
41966;SDS011;27656;53.068;8.818;2023-07-13T09:52:39;4.82;;;2.20;;
41966;SDS011;27656;53.068;8.818;2023-07-13T09:57:49;7.93;;;2.03;;
41966;SDS011;27656;53.068;8.818;2023-07-13T10:00:22;5.78;;;2.00;;
41966;SDS011;27656;53.068;8.818;2023-07-13T10:03:00;8.88;;;2.20;;
41966;SDS011;27656;53.068;8.818;2023-07-13T10:06:01;7.43;;;1.80;;
41966;SDS011;27656;53.068;8.818;2023-07-13T10:08:37;7.00;;;2.00;;
41966;SDS011;27656;53.068;8.818;2023-07-13T10:11:12;6.22;;;2.00;;
41966;SDS011;27656;53.068;8.818;2023-07-13T10:13:59;5.30;;;1.50;;
41966;SDS011;27656;53.068;8.818;2023-07-13T10:16:30;6.43;;;2.50;;
41966;SDS011;27656;53.068;8.818;2023-07-13T10:19:15;8.07;;;2.10;;
41966;SDS011;27656;53.068;8.818;2023-07-13T10:21:52;4.88;;;2.10;;
41966;SDS011;27656;53.068;8.818;2023-07-13T10:24:22;7.30;;;1.95;;
41966;SDS011;27656;53.068;8.818;2023-07-13T10:29:27;4.70;;;2.00;;
41966;SDS011;27656;53.068;8.818;2023-07-13T10:31:55;4.18;;;2.00;;
41966;SDS011;27656;53.068;8.818;2023-07-13T10:34:23;5.47;;;2.10;;
41966;SDS011;27656;53.068;8.818;2023-07-13T10:36:51;5.93;;;2.13;;
41966;SDS011;27656;53.068;8.818;2023-07-13T10:39:20;6.32;;;1.95;;
41966;SDS011;27656;53.068;8.818;2023-07-13T10:41:50;6.68;;;2.30;;
41966;SDS011;27656;53.068;8.818;2023-07-13T10:44:26;4.25;;;1.98;;
41966;SDS011;27656;53.068;8.818;2023-07-13T10:47:04;5.80;;;2.50;;
41966;SDS011;27656;53.068;8.818;2023-07-13T10:49:38;5.40;;;1.67;;
41966;SDS011;27656;53.068;8.818;2023-07-13T10:52:06;8.33;;;1.83;;
41966;SDS011;27656;53.068;8.818;2023-07-13T10:54:48;5.17;;;2.00;;
41966;SDS011;27656;53.068;8.818;2023-07-13T10:57:26;5.73;;;2.50;;
41966;SDS011;27656;53.068;8.818;2023-07-13T11:02:29;4.23;;;1.70;;
41966;SDS011;27656;53.068;8.818;2023-07-13T11:04:56;4.17;;;1.97;;
41966;SDS011;27656;53.068;8.818;2023-07-13T11:07:25;7.17;;;1.80;;
41966;SDS011;27656;53.068;8.818;2023-07-13T11:09:56;6.87;;;2.40;;
41966;SDS011;27656;53.068;8.818;2023-07-13T11:12:27;4.13;;;1.80;;
41966;SDS011;27656;53.068;8.818;2023-07-13T11:15:03;4.53;;;2.10;;
41966;SDS011;27656;53.068;8.818;2023-07-13T11:17:37;6.43;;;2.00;;
41966;SDS011;27656;53.068;8.818;2023-07-13T11:20:21;8.43;;;2.30;;
41966;SDS011;27656;53.068;8.818;2023-07-13T11:22:52;3.77;;;2.03;;
41966;SDS011;27656;53.068;8.818;2023-07-13T11:25:36;4.17;;;1.77;;
41966;SDS011;27656;53.068;8.818;2023-07-13T11:30:47;5.77;;;1.90;;
41966;SDS011;27656;53.068;8.818;2023-07-13T11:33:21;4.33;;;1.87;;
41966;SDS011;27656;53.068;8.818;2023-07-13T11:35:59;3.83;;;2.17;;
41966;SDS011;27656;53.068;8.818;2023-07-13T11:41:02;5.80;;;1.50;;
41966;SDS011;27656;53.068;8.818;2023-07-13T11:43:33;2.87;;;1.10;;
41966;SDS011;27656;53.068;8.818;2023-07-13T11:48:47;1.77;;;1.00;;
41966;SDS011;27656;53.068;8.818;2023-07-13T11:51:17;2.27;;;0.93;;
41966;SDS011;27656;53.068;8.818;2023-07-13T11:53:47;2.20;;;1.03;;
41966;SDS011;27656;53.068;8.818;2023-07-13T11:56:15;1.83;;;1.20;;
41966;SDS011;27656;53.068;8.818;2023-07-13T11:58:42;2.10;;;1.00;;
41966;SDS011;27656;53.068;8.818;2023-07-13T12:01:15;2.30;;;1.03;;
41966;SDS011;27656;53.068;8.818;2023-07-13T12:03:46;2.20;;;1.10;;
41966;SDS011;27656;53.068;8.818;2023-07-13T12:06:32;2.80;;;1.00;;
41966;SDS011;27656;53.068;8.818;2023-07-13T12:09:08;2.43;;;1.13;;
41966;SDS011;27656;53.068;8.818;2023-07-13T12:11:42;3.47;;;1.40;;
41966;SDS011;27656;53.068;8.818;2023-07-13T12:14:16;5.70;;;1.80;;
41966;SDS011;27656;53.068;8.818;2023-07-13T12:16:43;4.13;;;1.60;;
41966;SDS011;27656;53.068;8.818;2023-07-13T12:19:16;5.70;;;1.40;;
41966;SDS011;27656;53.068;8.818;2023-07-13T12:21:45;3.23;;;2.63;;
41966;SDS011;27656;53.068;8.818;2023-07-13T12:24:19;6.07;;;1.60;;
41966;SDS011;27656;53.068;8.818;2023-07-13T12:26:50;2.13;;;1.60;;
41966;SDS011;27656;53.068;8.818;2023-07-13T12:29:18;3.80;;;1.53;;
41966;SDS011;27656;53.068;8.818;2023-07-13T12:31:49;1.40;;;1.10;;
41966;SDS011;27656;53.068;8.818;2023-07-13T12:34:17;1.97;;;1.20;;
41966;SDS011;27656;53.068;8.818;2023-07-13T12:36:49;1.40;;;1.20;;
41966;SDS011;27656;53.068;8.818;2023-07-13T12:45:19;2.47;;;1.27;;
41966;SDS011;27656;53.068;8.818;2023-07-13T12:47:48;2.80;;;1.23;;
41966;SDS011;27656;53.068;8.818;2023-07-13T12:50:19;2.00;;;1.10;;
41966;SDS011;27656;53.068;8.818;2023-07-13T12:52:52;4.20;;;1.10;;
41966;SDS011;27656;53.068;8.818;2023-07-13T12:55:20;1.50;;;1.03;;
41966;SDS011;27656;53.068;8.818;2023-07-13T12:57:52;1.20;;;1.10;;
41966;SDS011;27656;53.068;8.818;2023-07-13T13:00:24;2.73;;;1.00;;
41966;SDS011;27656;53.068;8.818;2023-07-13T13:02:54;2.53;;;1.50;;
41966;SDS011;27656;53.068;8.818;2023-07-13T13:05:42;1.50;;;0.93;;
41966;SDS011;27656;53.068;8.818;2023-07-13T13:08:12;1.87;;;0.97;;
41966;SDS011;27656;53.068;8.818;2023-07-13T13:10:40;2.37;;;1.20;;
41966;SDS011;27656;53.068;8.818;2023-07-13T13:13:08;2.80;;;1.20;;
41966;SDS011;27656;53.068;8.818;2023-07-13T13:15:35;1.43;;;0.90;;
41966;SDS011;27656;53.068;8.818;2023-07-13T13:18:08;1.53;;;1.00;;
41966;SDS011;27656;53.068;8.818;2023-07-13T13:20:41;1.37;;;0.90;;
41966;SDS011;27656;53.068;8.818;2023-07-13T13:23:17;2.00;;;0.97;;
41966;SDS011;27656;53.068;8.818;2023-07-13T13:26:00;0.87;;;0.70;;
41966;SDS011;27656;53.068;8.818;2023-07-13T13:28:28;1.73;;;0.73;;
41966;SDS011;27656;53.068;8.818;2023-07-13T13:30:56;2.30;;;0.70;;
41966;SDS011;27656;53.068;8.818;2023-07-13T13:33:26;1.53;;;0.97;;
41966;SDS011;27656;53.068;8.818;2023-07-13T13:35:55;2.10;;;1.17;;
41966;SDS011;27656;53.068;8.818;2023-07-13T13:38:26;0.97;;;0.80;;
41966;SDS011;27656;53.068;8.818;2023-07-13T13:40:54;1.13;;;0.90;;
41966;SDS011;27656;53.068;8.818;2023-07-13T13:43:23;1.10;;;0.87;;
41966;SDS011;27656;53.068;8.818;2023-07-13T13:45:55;2.30;;;1.00;;
41966;SDS011;27656;53.068;8.818;2023-07-13T13:48:33;1.60;;;0.80;;
41966;SDS011;27656;53.068;8.818;2023-07-13T13:51:03;1.23;;;0.93;;
41966;SDS011;27656;53.068;8.818;2023-07-13T13:53:37;1.57;;;1.07;;
41966;SDS011;27656;53.068;8.818;2023-07-13T13:56:04;2.43;;;1.33;;
41966;SDS011;27656;53.068;8.818;2023-07-13T13:58:31;1.73;;;1.13;;
41966;SDS011;27656;53.068;8.818;2023-07-13T14:00:58;5.10;;;1.20;;
41966;SDS011;27656;53.068;8.818;2023-07-13T14:03:26;3.77;;;1.13;;
41966;SDS011;27656;53.068;8.818;2023-07-13T14:05:55;2.17;;;1.03;;
41966;SDS011;27656;53.068;8.818;2023-07-13T14:08:24;3.93;;;1.30;;
41966;SDS011;27656;53.068;8.818;2023-07-13T14:10:51;2.53;;;1.27;;
41966;SDS011;27656;53.068;8.818;2023-07-13T14:13:21;2.30;;;1.20;;
41966;SDS011;27656;53.068;8.818;2023-07-13T14:15:49;5.37;;;1.20;;
41966;SDS011;27656;53.068;8.818;2023-07-13T14:18:19;2.63;;;1.23;;
41966;SDS011;27656;53.068;8.818;2023-07-13T14:20:48;1.42;;;0.90;;
41966;SDS011;27656;53.068;8.818;2023-07-13T14:23:18;1.50;;;0.90;;
41966;SDS011;27656;53.068;8.818;2023-07-13T14:25:47;1.77;;;1.20;;
41966;SDS011;27656;53.068;8.818;2023-07-13T14:28:19;3.28;;;1.05;;
41966;SDS011;27656;53.068;8.818;2023-07-13T14:30:48;4.30;;;1.27;;
41966;SDS011;27656;53.068;8.818;2023-07-13T14:33:17;2.88;;;1.50;;
41966;SDS011;27656;53.068;8.818;2023-07-13T14:35:46;1.88;;;1.33;;
41966;SDS011;27656;53.068;8.818;2023-07-13T14:38:16;2.67;;;1.60;;
41966;SDS011;27656;53.068;8.818;2023-07-13T14:40:46;1.48;;;1.10;;
41966;SDS011;27656;53.068;8.818;2023-07-13T14:43:16;2.55;;;1.60;;
41966;SDS011;27656;53.068;8.818;2023-07-13T14:45:45;3.75;;;1.60;;
41966;SDS011;27656;53.068;8.818;2023-07-13T14:48:22;2.10;;;1.40;;
41966;SDS011;27656;53.068;8.818;2023-07-13T14:50:53;1.88;;;1.60;;
41966;SDS011;27656;53.068;8.818;2023-07-13T14:53:28;2.45;;;1.58;;
41966;SDS011;27656;53.068;8.818;2023-07-13T14:55:57;3.13;;;1.73;;
41966;SDS011;27656;53.068;8.818;2023-07-13T14:58:27;3.95;;;1.60;;
41966;SDS011;27656;53.068;8.818;2023-07-13T15:01:00;3.30;;;1.85;;
41966;SDS011;27656;53.068;8.818;2023-07-13T15:03:31;5.18;;;1.73;;
41966;SDS011;27656;53.068;8.818;2023-07-13T15:06:07;3.35;;;2.10;;
41966;SDS011;27656;53.068;8.818;2023-07-13T15:08:39;3.83;;;1.98;;
41966;SDS011;27656;53.068;8.818;2023-07-13T15:11:08;4.32;;;1.88;;
41966;SDS011;27656;53.068;8.818;2023-07-13T15:13:39;3.33;;;2.07;;
41966;SDS011;27656;53.068;8.818;2023-07-13T15:16:26;3.67;;;1.50;;
41966;SDS011;27656;53.068;8.818;2023-07-13T15:19:01;6.07;;;1.60;;
41966;SDS011;27656;53.068;8.818;2023-07-13T15:21:29;5.80;;;1.60;;
41966;SDS011;27656;53.068;8.818;2023-07-13T15:24:04;1.30;;;1.10;;
41966;SDS011;27656;53.068;8.818;2023-07-13T15:26:45;1.20;;;0.90;;
41966;SDS011;27656;53.068;8.818;2023-07-13T15:29:15;2.17;;;1.17;;
41966;SDS011;27656;53.068;8.818;2023-07-13T15:31:52;3.17;;;1.20;;
41966;SDS011;27656;53.068;8.818;2023-07-13T15:34:35;2.20;;;1.30;;
41966;SDS011;27656;53.068;8.818;2023-07-13T15:37:14;4.97;;;1.03;;
41966;SDS011;27656;53.068;8.818;2023-07-13T15:39:44;3.13;;;1.10;;
41966;SDS011;27656;53.068;8.818;2023-07-13T15:42:18;1.97;;;0.90;;